sensor_id;sensor_type;location;lat;lon;timestamp;pressure;altitude;pressure_sealevel;temperature;humidity
72210;BME280;60113;48.762;12.302;2024-01-15T00:01:21;95861.03;;;-5.83;100.00
72210;BME280;60113;48.762;12.302;2024-01-15T00:03:46;95868.00;;;-5.86;100.00
72210;BME280;60113;48.762;12.302;2024-01-15T00:06:12;95874.13;;;-5.92;100.00
72210;BME280;60113;48.762;12.302;2024-01-15T00:08:37;95864.94;;;-5.98;100.00
72210;BME280;60113;48.762;12.302;2024-01-15T00:11:02;95869.41;;;-6.03;100.00
72210;BME280;60113;48.762;12.302;2024-01-15T00:13:28;95872.19;;;-6.09;100.00
72210;BME280;60113;48.762;12.302;2024-01-15T00:15:54;95881.63;;;-6.11;100.00
72210;BME280;60113;48.762;12.302;2024-01-15T00:18:19;95862.78;;;-6.09;100.00
72210;BME280;60113;48.762;12.302;2024-01-15T00:20:45;95859.94;;;-6.01;100.00
72210;BME280;60113;48.762;12.302;2024-01-15T00:23:10;95862.25;;;-5.93;100.00
72210;BME280;60113;48.762;12.302;2024-01-15T00:25:35;95869.72;;;-5.87;100.00
72210;BME280;60113;48.762;12.302;2024-01-15T00:28:01;95867.06;;;-5.84;100.00
72210;BME280;60113;48.762;12.302;2024-01-15T00:30:26;95874.53;;;-5.78;100.00
72210;BME280;60113;48.762;12.302;2024-01-15T00:32:52;95865.66;;;-5.67;100.00
72210;BME280;60113;48.762;12.302;2024-01-15T00:35:17;95861.91;;;-5.57;100.00
72210;BME280;60113;48.762;12.302;2024-01-15T00:37:42;95867.66;;;-5.50;100.00
72210;BME280;60113;48.762;12.302;2024-01-15T00:40:08;95867.50;;;-5.45;100.00
72210;BME280;60113;48.762;12.302;2024-01-15T00:42:34;95869.94;;;-5.42;100.00
72210;BME280;60113;48.762;12.302;2024-01-15T00:44:59;95865.56;;;-5.38;100.00
72210;BME280;60113;48.762;12.302;2024-01-15T00:47:25;95866.13;;;-5.30;100.00
72210;BME280;60113;48.762;12.302;2024-01-15T00:49:50;95867.47;;;-5.20;100.00
72210;BME280;60113;48.762;12.302;2024-01-15T00:52:15;95859.41;;;-5.09;100.00
72210;BME280;60113;48.762;12.302;2024-01-15T00:54:41;95870.25;;;-5.02;100.00
72210;BME280;60113;48.762;12.302;2024-01-15T00:57:06;95872.66;;;-4.97;100.00
72210;BME280;60113;48.762;12.302;2024-01-15T00:59:31;95884.53;;;-4.95;100.00
72210;BME280;60113;48.762;12.302;2024-01-15T01:01:57;95893.94;;;-4.95;100.00
72210;BME280;60113;48.762;12.302;2024-01-15T01:04:22;95887.22;;;-4.98;100.00
72210;BME280;60113;48.762;12.302;2024-01-15T01:06:48;95878.78;;;-5.02;100.00
72210;BME280;60113;48.762;12.302;2024-01-15T01:09:13;95882.41;;;-5.07;99.79
72210;BME280;60113;48.762;12.302;2024-01-15T01:11:38;95857.84;;;-5.13;99.04
72210;BME280;60113;48.762;12.302;2024-01-15T01:14:04;95890.47;;;-5.18;99.12
72210;BME280;60113;48.762;12.302;2024-01-15T01:16:30;95900.00;;;-5.22;99.73
72210;BME280;60113;48.762;12.302;2024-01-15T01:18:56;95891.56;;;-5.25;99.53
72210;BME280;60113;48.762;12.302;2024-01-15T01:21:22;95908.78;;;-5.29;99.92
72210;BME280;60113;48.762;12.302;2024-01-15T01:23:47;95909.69;;;-5.32;100.00
72210;BME280;60113;48.762;12.302;2024-01-15T01:26:16;95914.13;;;-5.35;100.00
72210;BME280;60113;48.762;12.302;2024-01-15T01:28:42;95920.13;;;-5.36;100.00
72210;BME280;60113;48.762;12.302;2024-01-15T01:31:08;95920.13;;;-5.36;100.00
72210;BME280;60113;48.762;12.302;2024-01-15T01:33:33;95904.81;;;-5.38;100.00
72210;BME280;60113;48.762;12.302;2024-01-15T01:35:59;95919.38;;;-5.40;100.00
72210;BME280;60113;48.762;12.302;2024-01-15T01:38:24;95921.09;;;-5.41;100.00
72210;BME280;60113;48.762;12.302;2024-01-15T01:40:50;95916.88;;;-5.42;100.00
72210;BME280;60113;48.762;12.302;2024-01-15T01:43:15;95924.56;;;-5.42;100.00
72210;BME280;60113;48.762;12.302;2024-01-15T01:45:40;95927.97;;;-5.41;100.00
72210;BME280;60113;48.762;12.302;2024-01-15T01:48:06;95924.63;;;-5.43;100.00
72210;BME280;60113;48.762;12.302;2024-01-15T01:50:32;95933.16;;;-5.43;100.00
72210;BME280;60113;48.762;12.302;2024-01-15T01:52:59;95922.91;;;-5.43;100.00
72210;BME280;60113;48.762;12.302;2024-01-15T01:55:27;95930.47;;;-5.40;100.00
72210;BME280;60113;48.762;12.302;2024-01-15T01:57:55;95934.75;;;-5.40;100.00
72210;BME280;60113;48.762;12.302;2024-01-15T02:00:20;95923.66;;;-5.41;100.00
72210;BME280;60113;48.762;12.302;2024-01-15T02:02:46;95915.16;;;-5.41;100.00
72210;BME280;60113;48.762;12.302;2024-01-15T02:05:14;95921.09;;;-5.41;100.00
72210;BME280;60113;48.762;12.302;2024-01-15T02:07:43;95933.00;;;-5.38;100.00
72210;BME280;60113;48.762;12.302;2024-01-15T02:10:09;95934.59;;;-5.35;100.00
72210;BME280;60113;48.762;12.302;2024-01-15T02:12:35;95920.91;;;-5.34;100.00
72210;BME280;60113;48.762;12.302;2024-01-15T02:15:00;95933.59;;;-5.31;100.00
72210;BME280;60113;48.762;12.302;2024-01-15T02:17:25;95935.25;;;-5.30;100.00
72210;BME280;60113;48.762;12.302;2024-01-15T02:19:51;95928.44;;;-5.30;100.00
72210;BME280;60113;48.762;12.302;2024-01-15T02:22:16;95948.88;;;-5.28;100.00
72210;BME280;60113;48.762;12.302;2024-01-15T02:24:41;95934.34;;;-5.28;100.00
72210;BME280;60113;48.762;12.302;2024-01-15T02:27:07;95937.72;;;-5.27;100.00
72210;BME280;60113;48.762;12.302;2024-01-15T02:29:32;95943.69;;;-5.27;100.00
72210;BME280;60113;48.762;12.302;2024-01-15T02:31:58;95940.22;;;-5.25;100.00
72210;BME280;60113;48.762;12.302;2024-01-15T02:34:23;95936.81;;;-5.24;100.00
72210;BME280;60113;48.762;12.302;2024-01-15T02:36:49;95952.16;;;-5.24;100.00
72210;BME280;60113;48.762;12.302;2024-01-15T02:39:14;95927.38;;;-5.24;100.00
72210;BME280;60113;48.762;12.302;2024-01-15T02:41:39;95931.72;;;-5.26;100.00
72210;BME280;60113;48.762;12.302;2024-01-15T02:44:05;95933.53;;;-5.30;100.00
72210;BME280;60113;48.762;12.302;2024-01-15T02:46:30;95942.22;;;-5.34;100.00
72210;BME280;60113;48.762;12.302;2024-01-15T02:48:56;95959.41;;;-5.37;100.00
72210;BME280;60113;48.762;12.302;2024-01-15T02:51:21;95950.13;;;-5.40;100.00
72210;BME280;60113;48.762;12.302;2024-01-15T02:53:46;95945.09;;;-5.43;100.00
72210;BME280;60113;48.762;12.302;2024-01-15T02:56:12;95944.34;;;-5.47;100.00
72210;BME280;60113;48.762;12.302;2024-01-15T02:58:37;95940.22;;;-5.51;100.00
72210;BME280;60113;48.762;12.302;2024-01-15T03:01:03;95943.78;;;-5.55;100.00
72210;BME280;60113;48.762;12.302;2024-01-15T03:03:28;95916.53;;;-5.58;100.00
72210;BME280;60113;48.762;12.302;2024-01-15T03:05:53;95941.38;;;-5.60;100.00
72210;BME280;60113;48.762;12.302;2024-01-15T03:08:19;95938.03;;;-5.62;100.00
72210;BME280;60113;48.762;12.302;2024-01-15T03:10:44;95928.72;;;-5.65;100.00
72210;BME280;60113;48.762;12.302;2024-01-15T03:13:10;95921.88;;;-5.64;100.00
72210;BME280;60113;48.762;12.302;2024-01-15T03:15:35;95936.34;;;-5.63;100.00
72210;BME280;60113;48.762;12.302;2024-01-15T03:18:00;95944.91;;;-5.64;100.00
72210;BME280;60113;48.762;12.302;2024-01-15T03:20:26;95929.59;;;-5.66;100.00
72210;BME280;60113;48.762;12.302;2024-01-15T03:22:51;95927.88;;;-5.65;100.00
72210;BME280;60113;48.762;12.302;2024-01-15T03:25:17;95928.63;;;-5.61;100.00
72210;BME280;60113;48.762;12.302;2024-01-15T03:27:42;95917.41;;;-5.57;100.00
72210;BME280;60113;48.762;12.302;2024-01-15T03:30:08;95914.69;;;-5.53;100.00
72210;BME280;60113;48.762;12.302;2024-01-15T03:32:33;95928.28;;;-5.50;100.00
72210;BME280;60113;48.762;12.302;2024-01-15T03:34:58;95908.56;;;-5.48;100.00
72210;BME280;60113;48.762;12.302;2024-01-15T03:37:24;95920.41;;;-5.44;100.00
72210;BME280;60113;48.762;12.302;2024-01-15T03:39:49;95919.38;;;-5.40;100.00
72210;BME280;60113;48.762;12.302;2024-01-15T03:42:15;95915.94;;;-5.39;100.00
72210;BME280;60113;48.762;12.302;2024-01-15T03:44:40;95917.47;;;-5.33;100.00
72210;BME280;60113;48.762;12.302;2024-01-15T03:47:05;95913.06;;;-5.30;100.00
72210;BME280;60113;48.762;12.302;2024-01-15T03:49:31;95912.09;;;-5.27;100.00
72210;BME280;60113;48.762;12.302;2024-01-15T03:51:56;95921.44;;;-5.24;100.00
72210;BME280;60113;48.762;12.302;2024-01-15T03:54:21;95923.09;;;-5.23;100.00
72210;BME280;60113;48.762;12.302;2024-01-15T03:56:47;95915.34;;;-5.22;100.00
72210;BME280;60113;48.762;12.302;2024-01-15T03:59:12;95925.56;;;-5.20;100.00
72210;BME280;60113;48.762;12.302;2024-01-15T04:01:37;95928.84;;;-5.17;100.00
72210;BME280;60113;48.762;12.302;2024-01-15T04:04:03;95929.63;;;-5.15;100.00
72210;BME280;60113;48.762;12.302;2024-01-15T04:06:28;95927.84;;;-5.12;100.00
72210;BME280;60113;48.762;12.302;2024-01-15T04:08:54;95924.38;;;-5.11;100.00
72210;BME280;60113;48.762;12.302;2024-01-15T04:11:19;95929.47;;;-5.10;100.00
72210;BME280;60113;48.762;12.302;2024-01-15T04:13:45;95937.94;;;-5.08;100.00
72210;BME280;60113;48.762;12.302;2024-01-15T04:16:10;95926.75;;;-5.05;100.00
72210;BME280;60113;48.762;12.302;2024-01-15T04:18:35;95922.41;;;-5.03;100.00
72210;BME280;60113;48.762;12.302;2024-01-15T04:21:01;95933.44;;;-5.01;99.85
72210;BME280;60113;48.762;12.302;2024-01-15T04:23:28;95921.41;;;-4.99;99.76
72210;BME280;60113;48.762;12.302;2024-01-15T04:25:54;95916.84;;;-4.91;99.13
72210;BME280;60113;48.762;12.302;2024-01-15T04:28:19;95915.91;;;-4.88;99.12
72210;BME280;60113;48.762;12.302;2024-01-15T04:30:45;95910.66;;;-4.85;99.12
72210;BME280;60113;48.762;12.302;2024-01-15T04:33:10;95919.97;;;-4.82;98.79
72210;BME280;60113;48.762;12.302;2024-01-15T04:35:35;95918.13;;;-4.79;98.46
72210;BME280;60113;48.762;12.302;2024-01-15T04:38:01;95916.34;;;-4.77;98.62
72210;BME280;60113;48.762;12.302;2024-01-15T04:40:26;95913.69;;;-4.73;98.19
72210;BME280;60113;48.762;12.302;2024-01-15T04:42:53;95918.59;;;-4.67;97.67
72210;BME280;60113;48.762;12.302;2024-01-15T04:45:19;95909.81;;;-4.61;97.68
72210;BME280;60113;48.762;12.302;2024-01-15T04:47:44;95913.13;;;-4.58;97.34
72210;BME280;60113;48.762;12.302;2024-01-15T04:50:10;95892.50;;;-4.55;97.90
72210;BME280;60113;48.762;12.302;2024-01-15T04:52:35;95911.19;;;-4.53;97.67
72210;BME280;60113;48.762;12.302;2024-01-15T04:55:01;95912.94;;;-4.53;98.51
72210;BME280;60113;48.762;12.302;2024-01-15T04:57:26;95911.19;;;-4.53;98.09
72210;BME280;60113;48.762;12.302;2024-01-15T04:59:51;95917.13;;;-4.50;97.96
72210;BME280;60113;48.762;12.302;2024-01-15T05:02:17;95908.56;;;-4.51;98.60
72210;BME280;60113;48.762;12.302;2024-01-15T05:04:42;95910.22;;;-4.48;98.03
72210;BME280;60113;48.762;12.302;2024-01-15T05:07:07;95907.59;;;-4.47;98.52
72210;BME280;60113;48.762;12.302;2024-01-15T05:09:33;95906.56;;;-4.43;98.17
72210;BME280;60113;48.762;12.302;2024-01-15T05:11:59;95903.78;;;-4.36;97.74
72210;BME280;60113;48.762;12.302;2024-01-15T05:14:25;95900.19;;;-4.32;97.67
72210;BME280;60113;48.762;12.302;2024-01-15T05:16:50;95898.34;;;-4.29;97.64
72210;BME280;60113;48.762;12.302;2024-01-15T05:19:16;95903.44;;;-4.27;97.64
72210;BME280;60113;48.762;12.302;2024-01-15T05:21:41;95898.97;;;-4.22;96.92
72210;BME280;60113;48.762;12.302;2024-01-15T05:24:08;95901.41;;;-4.19;96.97
72210;BME280;60113;48.762;12.302;2024-01-15T05:26:33;95903.84;;;-4.16;97.31
72210;BME280;60113;48.762;12.302;2024-01-15T05:28:59;95906.25;;;-4.11;96.69
72210;BME280;60113;48.762;12.302;2024-01-15T05:31:24;95901.88;;;-4.09;96.58
72210;BME280;60113;48.762;12.302;2024-01-15T05:33:50;95905.16;;;-4.05;96.14
72210;BME280;60113;48.762;12.302;2024-01-15T05:36:15;95899.97;;;-4.04;96.30
72210;BME280;60113;48.762;12.302;2024-01-15T05:38:40;95907.59;;;-4.02;96.29
72210;BME280;60113;48.762;12.302;2024-01-15T05:41:07;95904.97;;;-4.00;95.96
72210;BME280;60113;48.762;12.302;2024-01-15T05:43:32;95911.84;;;-4.01;96.76
72210;BME280;60113;48.762;12.302;2024-01-15T05:45:57;95906.69;;;-4.01;96.64
72210;BME280;60113;48.762;12.302;2024-01-15T05:48:23;95905.03;;;-4.02;97.23
72210;BME280;60113;48.762;12.302;2024-01-15T05:50:48;95896.50;;;-4.03;97.28
72210;BME280;60113;48.762;12.302;2024-01-15T05:53:14;95899.91;;;-4.02;97.80
72210;BME280;60113;48.762;12.302;2024-01-15T05:55:40;95904.19;;;-4.03;98.32
72210;BME280;60113;48.762;12.302;2024-01-15T05:58:06;95899.84;;;-4.00;98.32
72210;BME280;60113;48.762;12.302;2024-01-15T06:00:31;95893.81;;;-3.99;98.14
72210;BME280;60113;48.762;12.302;2024-01-15T06:02:58;95896.31;;;-3.98;98.40
72210;BME280;60113;48.762;12.302;2024-01-15T06:05:24;95894.47;;;-3.94;98.24
72210;BME280;60113;48.762;12.302;2024-01-15T06:07:50;95889.22;;;-3.91;98.43
72210;BME280;60113;48.762;12.302;2024-01-15T06:10:16;95890.03;;;-3.91;98.71
72210;BME280;60113;48.762;12.302;2024-01-15T06:12:43;95881.41;;;-3.88;98.59
72210;BME280;60113;48.762;12.302;2024-01-15T06:15:09;95891.59;;;-3.86;98.42
72210;BME280;60113;48.762;12.302;2024-01-15T06:17:35;95894.84;;;-3.83;98.29
72210;BME280;60113;48.762;12.302;2024-01-15T06:20:00;95887.94;;;-3.81;98.00
72210;BME280;60113;48.762;12.302;2024-01-15T06:22:26;95886.16;;;-3.79;97.42
72210;BME280;60113;48.762;12.302;2024-01-15T06:24:51;95870.63;;;-3.75;97.30
72210;BME280;60113;48.762;12.302;2024-01-15T06:27:17;95892.66;;;-3.70;96.96
72210;BME280;60113;48.762;12.302;2024-01-15T06:29:45;95888.16;;;-3.65;96.48
72210;BME280;60113;48.762;12.302;2024-01-15T06:32:11;95881.22;;;-3.62;95.78
72210;BME280;60113;48.762;12.302;2024-01-15T06:34:36;95886.28;;;-3.61;96.36
72210;BME280;60113;48.762;12.302;2024-01-15T06:37:02;95879.44;;;-3.60;95.58
72210;BME280;60113;48.762;12.302;2024-01-15T06:39:27;95879.28;;;-3.57;95.64
72210;BME280;60113;48.762;12.302;2024-01-15T06:41:53;95876.53;;;-3.53;94.76
72210;BME280;60113;48.762;12.302;2024-01-15T06:44:18;95870.44;;;-3.50;94.64
72210;BME280;60113;48.762;12.302;2024-01-15T06:46:47;95863.38;;;-3.45;93.86
72210;BME280;60113;48.762;12.302;2024-01-15T06:49:12;95877.69;;;-3.39;92.88
72210;BME280;60113;48.762;12.302;2024-01-15T06:51:38;95878.34;;;-3.34;92.60
72210;BME280;60113;48.762;12.302;2024-01-15T06:54:04;95886.72;;;-3.30;92.36
72210;BME280;60113;48.762;12.302;2024-01-15T06:56:29;95883.28;;;-3.29;92.23
72210;BME280;60113;48.762;12.302;2024-01-15T06:58:55;95865.22;;;-3.28;91.60
72210;BME280;60113;48.762;12.302;2024-01-15T07:01:20;95883.09;;;-3.24;91.21
72210;BME280;60113;48.762;12.302;2024-01-15T07:03:46;95871.91;;;-3.23;91.33
72210;BME280;60113;48.762;12.302;2024-01-15T07:06:12;95882.03;;;-3.20;91.21
72210;BME280;60113;48.762;12.302;2024-01-15T07:08:38;95874.28;;;-3.19;90.52
72210;BME280;60113;48.762;12.302;2024-01-15T07:11:04;95875.13;;;-3.18;90.94
72210;BME280;60113;48.762;12.302;2024-01-15T07:13:30;95881.97;;;-3.19;91.18
72210;BME280;60113;48.762;12.302;2024-01-15T07:15:56;95892.06;;;-3.14;89.93
72210;BME280;60113;48.762;12.302;2024-01-15T07:18:21;95884.28;;;-3.12;91.05
72210;BME280;60113;48.762;12.302;2024-01-15T07:20:47;95887.69;;;-3.12;91.04
72210;BME280;60113;48.762;12.302;2024-01-15T07:23:13;95897.06;;;-3.11;90.71
72210;BME280;60113;48.762;12.302;2024-01-15T07:25:38;95902.22;;;-3.11;91.22
72210;BME280;60113;48.762;12.302;2024-01-15T07:28:04;95886.78;;;-3.11;91.37
72210;BME280;60113;48.762;12.302;2024-01-15T07:30:30;95896.16;;;-3.10;90.70
72210;BME280;60113;48.762;12.302;2024-01-15T07:32:56;95893.59;;;-3.10;91.00
72210;BME280;60113;48.762;12.302;2024-01-15T07:35:21;95895.28;;;-3.09;90.87
72210;BME280;60113;48.762;12.302;2024-01-15T07:37:47;95902.84;;;-3.06;90.68
72210;BME280;60113;48.762;12.302;2024-01-15T07:40:12;95890.75;;;-3.04;90.46
72210;BME280;60113;48.762;12.302;2024-01-15T07:42:38;95903.47;;;-3.01;90.69
72210;BME280;60113;48.762;12.302;2024-01-15T07:45:04;95896.53;;;-2.98;89.54
72210;BME280;60113;48.762;12.302;2024-01-15T07:47:30;95885.22;;;-2.94;89.90
72210;BME280;60113;48.762;12.302;2024-01-15T07:49:55;95883.34;;;-2.91;89.15
72210;BME280;60113;48.762;12.302;2024-01-15T07:52:21;95883.06;;;-2.84;89.07
72210;BME280;60113;48.762;12.302;2024-01-15T07:54:47;95891.44;;;-2.79;87.73
72210;BME280;60113;48.762;12.302;2024-01-15T07:57:12;95889.47;;;-2.74;88.02
72210;BME280;60113;48.762;12.302;2024-01-15T07:59:38;95886.63;;;-2.68;86.98
72210;BME280;60113;48.762;12.302;2024-01-15T08:02:03;95889.06;;;-2.65;86.81
72210;BME280;60113;48.762;12.302;2024-01-15T08:04:29;95878.72;;;-2.63;86.02
72210;BME280;60113;48.762;12.302;2024-01-15T08:06:55;95874.25;;;-2.59;85.14
72210;BME280;60113;48.762;12.302;2024-01-15T08:09:22;95871.47;;;-2.55;85.82
72210;BME280;60113;48.762;12.302;2024-01-15T08:11:47;95874.81;;;-2.53;85.57
72210;BME280;60113;48.762;12.302;2024-01-15T08:14:14;95859.28;;;-2.51;85.48
72210;BME280;60113;48.762;12.302;2024-01-15T08:16:40;95866.06;;;-2.48;84.68
72210;BME280;60113;48.762;12.302;2024-01-15T08:19:06;95863.34;;;-2.45;84.35
72210;BME280;60113;48.762;12.302;2024-01-15T08:21:32;95857.28;;;-2.44;84.20
72210;BME280;60113;48.762;12.302;2024-01-15T08:24:01;95864.94;;;-2.43;84.71
72210;BME280;60113;48.762;12.302;2024-01-15T08:26:28;95852.84;;;-2.41;84.52
72210;BME280;60113;48.762;12.302;2024-01-15T08:28:53;95862.06;;;-2.36;84.63
72210;BME280;60113;48.762;12.302;2024-01-15T08:31:19;95868.75;;;-2.32;85.38
72210;BME280;60113;48.762;12.302;2024-01-15T08:33:44;95856.66;;;-2.30;84.40
72210;BME280;60113;48.762;12.302;2024-01-15T08:36:10;95860.72;;;-2.26;84.77
72210;BME280;60113;48.762;12.302;2024-01-15T08:38:36;95869.16;;;-2.22;84.52
72210;BME280;60113;48.762;12.302;2024-01-15T08:41:01;95866.38;;;-2.18;84.23
72210;BME280;60113;48.762;12.302;2024-01-15T08:43:27;95868.88;;;-2.16;83.96
72210;BME280;60113;48.762;12.302;2024-01-15T08:45:53;95852.44;;;-2.14;84.95
72210;BME280;60113;48.762;12.302;2024-01-15T08:48:18;95859.13;;;-2.09;83.44
72210;BME280;60113;48.762;12.302;2024-01-15T08:50:44;95864.19;;;-2.08;84.01
72210;BME280;60113;48.762;12.302;2024-01-15T08:53:11;95859.72;;;-2.04;84.31
72210;BME280;60113;48.762;12.302;2024-01-15T08:55:37;95863.13;;;-2.04;83.74
72210;BME280;60113;48.762;12.302;2024-01-15T08:58:03;95860.50;;;-2.02;83.38
72210;BME280;60113;48.762;12.302;2024-01-15T09:00:29;95851.84;;;-2.01;83.31
72210;BME280;60113;48.762;12.302;2024-01-15T09:02:55;95847.47;;;-1.99;83.82
72210;BME280;60113;48.762;12.302;2024-01-15T09:05:21;95856.78;;;-1.96;83.59
72210;BME280;60113;48.762;12.302;2024-01-15T09:07:47;95865.28;;;-1.94;83.48
72210;BME280;60113;48.762;12.302;2024-01-15T09:10:13;95854.97;;;-1.94;82.93
72210;BME280;60113;48.762;12.302;2024-01-15T09:12:39;95854.81;;;-1.91;83.50
72210;BME280;60113;48.762;12.302;2024-01-15T09:15:05;95853.00;;;-1.89;81.43
72210;BME280;60113;48.762;12.302;2024-01-15T09:17:31;95845.97;;;-1.85;82.64
72210;BME280;60113;48.762;12.302;2024-01-15T09:19:57;95848.47;;;-1.84;82.27
72210;BME280;60113;48.762;12.302;2024-01-15T09:22:22;95847.47;;;-1.81;83.13
72210;BME280;60113;48.762;12.302;2024-01-15T09:24:48;95849.97;;;-1.80;82.45
72210;BME280;60113;48.762;12.302;2024-01-15T09:27:13;95843.84;;;-1.77;82.55
72210;BME280;60113;48.762;12.302;2024-01-15T09:29:39;95842.00;;;-1.75;81.91
72210;BME280;60113;48.762;12.302;2024-01-15T09:32:07;95846.19;;;-1.72;82.16
72210;BME280;60113;48.762;12.302;2024-01-15T09:34:36;95852.78;;;-1.67;82.04
72210;BME280;60113;48.762;12.302;2024-01-15T09:37:02;95849.97;;;-1.62;82.55
72210;BME280;60113;48.762;12.302;2024-01-15T09:39:28;95842.94;;;-1.58;82.12
72210;BME280;60113;48.762;12.302;2024-01-15T09:41:54;95853.09;;;-1.55;81.60
72210;BME280;60113;48.762;12.302;2024-01-15T09:44:19;95847.78;;;-1.52;82.20
72210;BME280;60113;48.762;12.302;2024-01-15T09:46:46;95858.75;;;-1.48;82.20
72210;BME280;60113;48.762;12.302;2024-01-15T09:49:14;95859.59;;;-1.48;81.15
72210;BME280;60113;48.762;12.302;2024-01-15T09:51:41;95851.03;;;-1.48;80.36
72210;BME280;60113;48.762;12.302;2024-01-15T09:54:08;95837.09;;;-1.44;81.63
72210;BME280;60113;48.762;12.302;2024-01-15T09:56:34;95842.09;;;-1.41;81.01
72210;BME280;60113;48.762;12.302;2024-01-15T09:59:01;95858.44;;;-1.42;79.92
72210;BME280;60113;48.762;12.302;2024-01-15T10:01:27;95860.78;;;-1.38;80.40
72210;BME280;60113;48.762;12.302;2024-01-15T10:03:54;95847.91;;;-1.38;79.31
72210;BME280;60113;48.762;12.302;2024-01-15T10:06:21;95863.22;;;-1.34;80.68
72210;BME280;60113;48.762;12.302;2024-01-15T10:08:48;95868.28;;;-1.33;81.33
72210;BME280;60113;48.762;12.302;2024-01-15T10:11:14;95868.53;;;-1.38;79.70
72210;BME280;60113;48.762;12.302;2024-01-15T10:13:40;95850.56;;;-1.39;79.63
72210;BME280;60113;48.762;12.302;2024-01-15T10:16:06;95840.25;;;-1.39;81.23
72210;BME280;60113;48.762;12.302;2024-01-15T10:18:32;95820.31;;;-1.35;81.33
72210;BME280;60113;48.762;12.302;2024-01-15T10:20:58;95839.03;;;-1.32;81.30
72210;BME280;60113;48.762;12.302;2024-01-15T10:23:24;95822.75;;;-1.32;80.38
72210;BME280;60113;48.762;12.302;2024-01-15T10:25:49;95813.00;;;-1.27;81.56
72210;BME280;60113;48.762;12.302;2024-01-15T10:28:18;95823.31;;;-1.27;79.12
72210;BME280;60113;48.762;12.302;2024-01-15T10:30:44;95822.34;;;-1.24;79.65
72210;BME280;60113;48.762;12.302;2024-01-15T10:33:10;95821.34;;;-1.22;80.03
72210;BME280;60113;48.762;12.302;2024-01-15T10:35:37;95819.47;;;-1.18;79.82
72210;BME280;60113;48.762;12.302;2024-01-15T10:38:05;95809.78;;;-1.15;79.50
72210;BME280;60113;48.762;12.302;2024-01-15T10:40:31;95820.78;;;-1.11;79.87
72210;BME280;60113;48.762;12.302;2024-01-15T10:42:57;95810.31;;;-1.08;79.64
72210;BME280;60113;48.762;12.302;2024-01-15T10:45:23;95805.00;;;-1.05;80.71
72210;BME280;60113;48.762;12.302;2024-01-15T10:47:49;95806.56;;;-1.02;80.43
72210;BME280;60113;48.762;12.302;2024-01-15T10:50:15;95809.84;;;-0.98;80.84
72210;BME280;60113;48.762;12.302;2024-01-15T10:52:41;95806.41;;;-0.99;79.89
72210;BME280;60113;48.762;12.302;2024-01-15T10:55:07;95786.47;;;-0.95;79.83
72210;BME280;60113;48.762;12.302;2024-01-15T10:57:39;95790.69;;;-0.94;80.20
72210;BME280;60113;48.762;12.302;2024-01-15T11:00:05;95794.03;;;-0.92;79.64
72210;BME280;60113;48.762;12.302;2024-01-15T11:02:35;95796.53;;;-0.91;79.88
72210;BME280;60113;48.762;12.302;2024-01-15T11:05:01;95797.22;;;-0.87;79.55
72210;BME280;60113;48.762;12.302;2024-01-15T11:07:27;95795.44;;;-0.86;79.92
72210;BME280;60113;48.762;12.302;2024-01-15T11:09:55;95798.09;;;-0.88;79.76
72210;BME280;60113;48.762;12.302;2024-01-15T11:12:20;95797.22;;;-0.87;80.78
72210;BME280;60113;48.762;12.302;2024-01-15T11:14:49;95787.06;;;-0.90;79.66
72210;BME280;60113;48.762;12.302;2024-01-15T11:17:17;95789.56;;;-0.89;80.08
72210;BME280;60113;48.762;12.302;2024-01-15T11:19:47;95775.75;;;-0.88;80.13
72210;BME280;60113;48.762;12.302;2024-01-15T11:24:57;95791.81;;;-0.82;80.05
72210;BME280;60113;48.762;12.302;2024-01-15T11:27:42;95785.72;;;-0.81;79.23
72210;BME280;60113;48.762;12.302;2024-01-15T11:30:08;95782.13;;;-0.79;80.06
72210;BME280;60113;48.762;12.302;2024-01-15T11:32:36;95780.56;;;-0.81;78.27
72210;BME280;60113;48.762;12.302;2024-01-15T11:35:02;95775.91;;;-0.74;80.76
72210;BME280;60113;48.762;12.302;2024-01-15T11:43:02;95775.06;;;-0.75;77.05
72210;BME280;60113;48.762;12.302;2024-01-15T11:45:29;95772.09;;;-0.67;79.67
72210;BME280;60113;48.762;12.302;2024-01-15T11:48:11;95776.31;;;-0.66;78.20
72210;BME280;60113;48.762;12.302;2024-01-15T11:50:42;95764.91;;;-0.62;77.02
72210;BME280;60113;48.762;12.302;2024-01-15T11:53:16;95773.75;;;-0.50;78.11
72210;BME280;60113;48.762;12.302;2024-01-15T11:55:44;95768.84;;;-0.24;78.39
72210;BME280;60113;48.762;12.302;2024-01-15T11:58:11;95760.66;;;0.00;78.26
72210;BME280;60113;48.762;12.302;2024-01-15T12:00:44;95761.97;;;0.22;77.72
72210;BME280;60113;48.762;12.302;2024-01-15T12:03:11;95749.91;;;0.37;78.03
72210;BME280;60113;48.762;12.302;2024-01-15T12:05:37;95753.69;;;0.46;78.69
72210;BME280;60113;48.762;12.302;2024-01-15T12:08:03;95749.72;;;0.40;77.08
72210;BME280;60113;48.762;12.302;2024-01-15T12:10:37;95756.69;;;0.23;75.97
72210;BME280;60113;48.762;12.302;2024-01-15T12:15:29;95755.84;;;0.08;77.75
72210;BME280;60113;48.762;12.302;2024-01-15T12:18:01;95754.16;;;-0.07;75.60
72210;BME280;60113;48.762;12.302;2024-01-15T12:20:28;95754.59;;;-0.15;76.34
72210;BME280;60113;48.762;12.302;2024-01-15T12:22:54;95754.69;;;-0.17;77.60
72210;BME280;60113;48.762;12.302;2024-01-15T12:25:23;95764.44;;;-0.22;78.25
72210;BME280;60113;48.762;12.302;2024-01-15T12:27:49;95757.88;;;-0.28;77.07
72210;BME280;60113;48.762;12.302;2024-01-15T12:30:15;95749.56;;;-0.33;76.68
72210;BME280;60113;48.762;12.302;2024-01-15T12:32:41;95760.41;;;-0.42;76.75
72210;BME280;60113;48.762;12.302;2024-01-15T12:35:13;95770.06;;;-0.46;76.52
72210;BME280;60113;48.762;12.302;2024-01-15T12:37:39;95749.09;;;-0.56;76.43
72210;BME280;60113;48.762;12.302;2024-01-15T12:40:07;95770.06;;;-0.62;75.96
72210;BME280;60113;48.762;12.302;2024-01-15T12:42:41;95754.28;;;-0.72;75.73
72210;BME280;60113;48.762;12.302;2024-01-15T12:45:08;95761.94;;;-0.70;78.12
72210;BME280;60113;48.762;12.302;2024-01-15T12:47:34;95752.63;;;-0.73;79.07
72210;BME280;60113;48.762;12.302;2024-01-15T12:49:59;95741.78;;;-0.80;77.59
72210;BME280;60113;48.762;12.302;2024-01-15T12:52:28;95738.53;;;-0.83;77.57